sensor_id;sensor_type;location;lat;lon;timestamp;temperature;humidity
8008;DHT22;4049;49.468;11.200;2023-05-07T00:00:24;12.10;99.90
8008;DHT22;4049;49.468;11.200;2023-05-07T00:02:51;12.10;99.90
8008;DHT22;4049;49.468;11.200;2023-05-07T00:05:18;12.10;99.90
8008;DHT22;4049;49.468;11.200;2023-05-07T00:07:46;12.10;99.90
8008;DHT22;4049;49.468;11.200;2023-05-07T00:10:13;12.10;99.90
8008;DHT22;4049;49.468;11.200;2023-05-07T00:12:41;12.10;99.90
8008;DHT22;4049;49.468;11.200;2023-05-07T00:15:08;12.10;99.90
8008;DHT22;4049;49.468;11.200;2023-05-07T00:17:36;12.10;99.90
8008;DHT22;4049;49.468;11.200;2023-05-07T00:20:03;12.10;99.90
8008;DHT22;4049;49.468;11.200;2023-05-07T00:22:31;12.20;99.90
8008;DHT22;4049;49.468;11.200;2023-05-07T00:24:58;12.20;99.90
8008;DHT22;4049;49.468;11.200;2023-05-07T00:27:25;12.30;99.90
8008;DHT22;4049;49.468;11.200;2023-05-07T00:29:53;12.30;99.90
8008;DHT22;4049;49.468;11.200;2023-05-07T00:32:20;12.30;99.90
8008;DHT22;4049;49.468;11.200;2023-05-07T00:34:46;12.30;99.90
8008;DHT22;4049;49.468;11.200;2023-05-07T00:37:13;12.30;99.90
8008;DHT22;4049;49.468;11.200;2023-05-07T00:39:40;12.30;99.90
8008;DHT22;4049;49.468;11.200;2023-05-07T00:42:07;12.30;99.90
8008;DHT22;4049;49.468;11.200;2023-05-07T00:44:34;12.30;99.90
8008;DHT22;4049;49.468;11.200;2023-05-07T00:47:03;12.40;99.90
8008;DHT22;4049;49.468;11.200;2023-05-07T00:49:37;12.40;99.90
8008;DHT22;4049;49.468;11.200;2023-05-07T00:52:05;12.40;99.90
8008;DHT22;4049;49.468;11.200;2023-05-07T00:54:33;12.50;99.90
8008;DHT22;4049;49.468;11.200;2023-05-07T00:57:02;12.50;99.90
8008;DHT22;4049;49.468;11.200;2023-05-07T00:59:29;12.50;99.90
8008;DHT22;4049;49.468;11.200;2023-05-07T01:01:56;12.60;99.90
8008;DHT22;4049;49.468;11.200;2023-05-07T01:04:25;12.60;99.90
8008;DHT22;4049;49.468;11.200;2023-05-07T01:06:53;12.60;99.90
8008;DHT22;4049;49.468;11.200;2023-05-07T01:09:21;12.70;99.90
8008;DHT22;4049;49.468;11.200;2023-05-07T01:11:49;12.70;99.90
8008;DHT22;4049;49.468;11.200;2023-05-07T01:14:17;12.70;99.90
8008;DHT22;4049;49.468;11.200;2023-05-07T01:16:44;12.70;99.90
8008;DHT22;4049;49.468;11.200;2023-05-07T01:19:12;12.70;99.90
8008;DHT22;4049;49.468;11.200;2023-05-07T01:21:45;12.80;99.90
8008;DHT22;4049;49.468;11.200;2023-05-07T01:24:14;12.80;99.90
8008;DHT22;4049;49.468;11.200;2023-05-07T01:26:42;12.80;99.90
8008;DHT22;4049;49.468;11.200;2023-05-07T01:29:09;12.80;99.90
8008;DHT22;4049;49.468;11.200;2023-05-07T01:31:36;12.80;99.90
8008;DHT22;4049;49.468;11.200;2023-05-07T01:34:07;12.80;99.90
8008;DHT22;4049;49.468;11.200;2023-05-07T01:36:35;12.80;99.90
8008;DHT22;4049;49.468;11.200;2023-05-07T01:39:04;12.90;99.90
8008;DHT22;4049;49.468;11.200;2023-05-07T01:41:33;12.90;99.90
8008;DHT22;4049;49.468;11.200;2023-05-07T01:44:01;12.90;99.90
8008;DHT22;4049;49.468;11.200;2023-05-07T01:46:30;12.90;99.90
8008;DHT22;4049;49.468;11.200;2023-05-07T01:48:57;12.90;99.90
8008;DHT22;4049;49.468;11.200;2023-05-07T01:51:24;12.90;99.90
8008;DHT22;4049;49.468;11.200;2023-05-07T01:53:52;12.90;99.90
8008;DHT22;4049;49.468;11.200;2023-05-07T01:56:19;12.90;99.90
8008;DHT22;4049;49.468;11.200;2023-05-07T01:58:48;12.90;99.90
8008;DHT22;4049;49.468;11.200;2023-05-07T02:01:16;12.90;99.90
8008;DHT22;4049;49.468;11.200;2023-05-07T02:03:43;12.90;99.90
8008;DHT22;4049;49.468;11.200;2023-05-07T02:06:10;12.90;99.90
8008;DHT22;4049;49.468;11.200;2023-05-07T02:08:37;12.90;99.90
8008;DHT22;4049;49.468;11.200;2023-05-07T02:11:04;12.90;99.90
8008;DHT22;4049;49.468;11.200;2023-05-07T02:13:32;12.90;99.90
8008;DHT22;4049;49.468;11.200;2023-05-07T02:16:01;12.90;99.90
8008;DHT22;4049;49.468;11.200;2023-05-07T02:18:28;12.90;99.90
8008;DHT22;4049;49.468;11.200;2023-05-07T02:20:55;12.90;99.90
8008;DHT22;4049;49.468;11.200;2023-05-07T02:23:21;12.90;99.90
8008;DHT22;4049;49.468;11.200;2023-05-07T02:25:48;12.90;99.90
8008;DHT22;4049;49.468;11.200;2023-05-07T02:28:15;12.90;99.90
8008;DHT22;4049;49.468;11.200;2023-05-07T02:30:42;12.90;99.90
8008;DHT22;4049;49.468;11.200;2023-05-07T02:33:10;12.90;99.90
8008;DHT22;4049;49.468;11.200;2023-05-07T02:35:37;12.90;99.90
8008;DHT22;4049;49.468;11.200;2023-05-07T02:38:04;12.90;99.90
8008;DHT22;4049;49.468;11.200;2023-05-07T02:40:31;12.90;99.90
8008;DHT22;4049;49.468;11.200;2023-05-07T02:45:34;12.90;99.90
8008;DHT22;4049;49.468;11.200;2023-05-07T02:48:03;12.80;99.90
8008;DHT22;4049;49.468;11.200;2023-05-07T02:50:32;12.80;99.90
8008;DHT22;4049;49.468;11.200;2023-05-07T02:52:59;12.80;99.90
8008;DHT22;4049;49.468;11.200;2023-05-07T02:55:26;12.80;99.90
8008;DHT22;4049;49.468;11.200;2023-05-07T02:57:52;12.70;99.90
8008;DHT22;4049;49.468;11.200;2023-05-07T03:00:20;12.70;99.90
8008;DHT22;4049;49.468;11.200;2023-05-07T03:02:47;12.70;99.90
8008;DHT22;4049;49.468;11.200;2023-05-07T03:05:14;12.70;99.90
8008;DHT22;4049;49.468;11.200;2023-05-07T03:07:42;12.60;99.90
8008;DHT22;4049;49.468;11.200;2023-05-07T03:10:10;12.60;99.90
8008;DHT22;4049;49.468;11.200;2023-05-07T03:12:38;12.60;99.90
8008;DHT22;4049;49.468;11.200;2023-05-07T03:15:05;12.60;99.90
8008;DHT22;4049;49.468;11.200;2023-05-07T03:17:32;12.50;99.90
8008;DHT22;4049;49.468;11.200;2023-05-07T03:19:59;12.50;99.90
8008;DHT22;4049;49.468;11.200;2023-05-07T03:22:26;12.50;99.90
8008;DHT22;4049;49.468;11.200;2023-05-07T03:24:54;12.40;99.90
8008;DHT22;4049;49.468;11.200;2023-05-07T03:27:21;12.50;99.90
8008;DHT22;4049;49.468;11.200;2023-05-07T03:29:48;12.40;99.90
8008;DHT22;4049;49.468;11.200;2023-05-07T03:32:14;12.40;99.90
8008;DHT22;4049;49.468;11.200;2023-05-07T03:34:41;12.40;99.90
8008;DHT22;4049;49.468;11.200;2023-05-07T03:37:08;12.30;99.90
8008;DHT22;4049;49.468;11.200;2023-05-07T03:39:35;12.30;99.90
8008;DHT22;4049;49.468;11.200;2023-05-07T03:42:03;12.30;99.90
8008;DHT22;4049;49.468;11.200;2023-05-07T03:44:30;12.10;99.90
8008;DHT22;4049;49.468;11.200;2023-05-07T03:46:57;12.20;99.90
8008;DHT22;4049;49.468;11.200;2023-05-07T03:49:23;12.20;99.90
8008;DHT22;4049;49.468;11.200;2023-05-07T03:51:50;12.10;99.90
8008;DHT22;4049;49.468;11.200;2023-05-07T03:54:17;12.10;99.90
8008;DHT22;4049;49.468;11.200;2023-05-07T03:56:44;12.10;99.90
8008;DHT22;4049;49.468;11.200;2023-05-07T03:59:12;12.10;99.90
8008;DHT22;4049;49.468;11.200;2023-05-07T04:01:39;12.00;99.90
8008;DHT22;4049;49.468;11.200;2023-05-07T04:04:06;12.00;99.90
8008;DHT22;4049;49.468;11.200;2023-05-07T04:06:33;12.00;99.90
8008;DHT22;4049;49.468;11.200;2023-05-07T04:09:00;12.00;99.90
8008;DHT22;4049;49.468;11.200;2023-05-07T04:11:26;12.00;99.90
8008;DHT22;4049;49.468;11.200;2023-05-07T04:13:53;11.90;99.90
8008;DHT22;4049;49.468;11.200;2023-05-07T04:16:21;11.90;99.90
8008;DHT22;4049;49.468;11.200;2023-05-07T04:18:48;11.90;99.90
8008;DHT22;4049;49.468;11.200;2023-05-07T04:21:15;11.90;99.90
8008;DHT22;4049;49.468;11.200;2023-05-07T04:23:42;11.90;99.90
8008;DHT22;4049;49.468;11.200;2023-05-07T04:26:09;11.80;99.90
8008;DHT22;4049;49.468;11.200;2023-05-07T04:28:36;11.80;99.90
8008;DHT22;4049;49.468;11.200;2023-05-07T04:31:03;11.80;99.90
8008;DHT22;4049;49.468;11.200;2023-05-07T04:33:31;11.80;99.90
8008;DHT22;4049;49.468;11.200;2023-05-07T04:35:58;11.80;99.90
8008;DHT22;4049;49.468;11.200;2023-05-07T04:38:28;11.80;99.90
8008;DHT22;4049;49.468;11.200;2023-05-07T04:40:55;11.80;99.90
8008;DHT22;4049;49.468;11.200;2023-05-07T04:43:22;11.80;99.90
8008;DHT22;4049;49.468;11.200;2023-05-07T04:45:50;11.80;99.90
8008;DHT22;4049;49.468;11.200;2023-05-07T04:48:17;11.90;99.90
8008;DHT22;4049;49.468;11.200;2023-05-07T04:50:48;11.90;99.90
8008;DHT22;4049;49.468;11.200;2023-05-07T04:53:16;11.90;99.90
8008;DHT22;4049;49.468;11.200;2023-05-07T04:55:43;12.00;99.90
8008;DHT22;4049;49.468;11.200;2023-05-07T04:58:10;12.00;99.90
8008;DHT22;4049;49.468;11.200;2023-05-07T05:00:37;12.10;99.90
8008;DHT22;4049;49.468;11.200;2023-05-07T05:03:05;12.20;99.90
8008;DHT22;4049;49.468;11.200;2023-05-07T05:05:32;12.30;99.90
8008;DHT22;4049;49.468;11.200;2023-05-07T05:08:01;12.30;99.90
8008;DHT22;4049;49.468;11.200;2023-05-07T05:10:28;12.40;99.90
8008;DHT22;4049;49.468;11.200;2023-05-07T05:12:55;12.40;99.90
8008;DHT22;4049;49.468;11.200;2023-05-07T05:15:22;12.50;99.90
8008;DHT22;4049;49.468;11.200;2023-05-07T05:17:49;12.50;99.90
8008;DHT22;4049;49.468;11.200;2023-05-07T05:20:16;12.60;99.90
8008;DHT22;4049;49.468;11.200;2023-05-07T05:22:42;12.60;99.90
8008;DHT22;4049;49.468;11.200;2023-05-07T05:25:11;12.70;99.90
8008;DHT22;4049;49.468;11.200;2023-05-07T05:27:38;12.70;99.90
8008;DHT22;4049;49.468;11.200;2023-05-07T05:30:06;12.80;99.90
8008;DHT22;4049;49.468;11.200;2023-05-07T05:32:33;12.80;99.90
8008;DHT22;4049;49.468;11.200;2023-05-07T05:35:00;12.80;99.90
8008;DHT22;4049;49.468;11.200;2023-05-07T05:37:27;12.90;99.90
8008;DHT22;4049;49.468;11.200;2023-05-07T05:39:55;13.00;99.90
8008;DHT22;4049;49.468;11.200;2023-05-07T05:42:23;13.10;99.90
8008;DHT22;4049;49.468;11.200;2023-05-07T05:44:50;13.10;99.90
8008;DHT22;4049;49.468;11.200;2023-05-07T05:47:17;13.20;99.90
8008;DHT22;4049;49.468;11.200;2023-05-07T05:49:44;13.30;99.90
8008;DHT22;4049;49.468;11.200;2023-05-07T05:52:14;13.40;99.90
8008;DHT22;4049;49.468;11.200;2023-05-07T05:54:42;13.40;99.90
8008;DHT22;4049;49.468;11.200;2023-05-07T05:57:09;13.50;99.90
8008;DHT22;4049;49.468;11.200;2023-05-07T05:59:37;13.50;99.90
8008;DHT22;4049;49.468;11.200;2023-05-07T06:02:04;13.60;99.90
8008;DHT22;4049;49.468;11.200;2023-05-07T06:04:30;13.60;99.90
8008;DHT22;4049;49.468;11.200;2023-05-07T06:06:57;13.60;99.90
8008;DHT22;4049;49.468;11.200;2023-05-07T06:09:24;13.70;99.90
8008;DHT22;4049;49.468;11.200;2023-05-07T06:11:51;13.70;99.90
8008;DHT22;4049;49.468;11.200;2023-05-07T06:14:18;13.70;99.90
8008;DHT22;4049;49.468;11.200;2023-05-07T06:16:46;13.80;99.90
8008;DHT22;4049;49.468;11.200;2023-05-07T06:19:13;13.80;99.90
8008;DHT22;4049;49.468;11.200;2023-05-07T06:21:39;13.90;99.90
8008;DHT22;4049;49.468;11.200;2023-05-07T06:24:07;13.90;99.90
8008;DHT22;4049;49.468;11.200;2023-05-07T06:26:34;14.00;99.90
8008;DHT22;4049;49.468;11.200;2023-05-07T06:29:00;14.00;99.90
8008;DHT22;4049;49.468;11.200;2023-05-07T06:31:30;14.00;99.90
8008;DHT22;4049;49.468;11.200;2023-05-07T06:33:59;14.10;99.90
8008;DHT22;4049;49.468;11.200;2023-05-07T06:36:27;14.20;99.90
8008;DHT22;4049;49.468;11.200;2023-05-07T06:38:54;14.20;99.90
8008;DHT22;4049;49.468;11.200;2023-05-07T06:41:21;14.30;99.90
8008;DHT22;4049;49.468;11.200;2023-05-07T06:43:48;14.40;99.90
8008;DHT22;4049;49.468;11.200;2023-05-07T06:46:15;14.40;99.90
8008;DHT22;4049;49.468;11.200;2023-05-07T06:48:42;14.50;99.90
8008;DHT22;4049;49.468;11.200;2023-05-07T06:51:10;14.50;99.90
8008;DHT22;4049;49.468;11.200;2023-05-07T06:53:37;14.60;99.90
8008;DHT22;4049;49.468;11.200;2023-05-07T06:56:04;14.70;99.90
8008;DHT22;4049;49.468;11.200;2023-05-07T06:58:31;14.70;99.90
8008;DHT22;4049;49.468;11.200;2023-05-07T07:00:58;14.80;99.90
8008;DHT22;4049;49.468;11.200;2023-05-07T07:03:25;14.80;99.90
8008;DHT22;4049;49.468;11.200;2023-05-07T07:05:52;14.80;99.90
8008;DHT22;4049;49.468;11.200;2023-05-07T07:08:21;14.90;99.90
8008;DHT22;4049;49.468;11.200;2023-05-07T07:10:48;14.90;99.90
8008;DHT22;4049;49.468;11.200;2023-05-07T07:13:15;15.00;99.90
8008;DHT22;4049;49.468;11.200;2023-05-07T07:15:42;15.10;99.90
8008;DHT22;4049;49.468;11.200;2023-05-07T07:18:09;15.20;99.90
8008;DHT22;4049;49.468;11.200;2023-05-07T07:20:36;15.30;99.90
8008;DHT22;4049;49.468;11.200;2023-05-07T07:23:03;15.40;99.90
8008;DHT22;4049;49.468;11.200;2023-05-07T07:25:31;15.50;99.90
8008;DHT22;4049;49.468;11.200;2023-05-07T07:27:58;15.60;99.90
8008;DHT22;4049;49.468;11.200;2023-05-07T07:30:25;15.70;99.90
8008;DHT22;4049;49.468;11.200;2023-05-07T07:32:52;15.80;99.90
8008;DHT22;4049;49.468;11.200;2023-05-07T07:35:19;15.90;99.90
8008;DHT22;4049;49.468;11.200;2023-05-07T07:37:47;16.00;99.90
8008;DHT22;4049;49.468;11.200;2023-05-07T07:40:15;16.10;99.90
8008;DHT22;4049;49.468;11.200;2023-05-07T07:42:43;16.20;99.90
8008;DHT22;4049;49.468;11.200;2023-05-07T07:45:10;16.20;99.90
8008;DHT22;4049;49.468;11.200;2023-05-07T07:47:38;16.30;99.90
8008;DHT22;4049;49.468;11.200;2023-05-07T07:50:05;16.30;99.90
8008;DHT22;4049;49.468;11.200;2023-05-07T07:52:32;16.40;99.90
8008;DHT22;4049;49.468;11.200;2023-05-07T07:54:59;16.50;99.90
8008;DHT22;4049;49.468;11.200;2023-05-07T07:57:26;16.50;99.90
8008;DHT22;4049;49.468;11.200;2023-05-07T07:59:54;16.60;99.90
8008;DHT22;4049;49.468;11.200;2023-05-07T08:02:21;16.70;99.90
8008;DHT22;4049;49.468;11.200;2023-05-07T08:04:48;16.70;99.90
8008;DHT22;4049;49.468;11.200;2023-05-07T08:07:15;16.80;99.90
8008;DHT22;4049;49.468;11.200;2023-05-07T08:09:43;16.80;99.90
8008;DHT22;4049;49.468;11.200;2023-05-07T08:12:10;16.90;99.90
8008;DHT22;4049;49.468;11.200;2023-05-07T08:14:37;16.90;99.90
8008;DHT22;4049;49.468;11.200;2023-05-07T08:17:05;17.00;99.90
8008;DHT22;4049;49.468;11.200;2023-05-07T08:19:32;17.00;99.90
8008;DHT22;4049;49.468;11.200;2023-05-07T08:22:01;17.10;99.90
8008;DHT22;4049;49.468;11.200;2023-05-07T08:24:28;17.10;99.90
8008;DHT22;4049;49.468;11.200;2023-05-07T08:26:55;17.10;99.90
8008;DHT22;4049;49.468;11.200;2023-05-07T08:29:22;17.20;99.90
8008;DHT22;4049;49.468;11.200;2023-05-07T08:31:49;17.30;99.90
8008;DHT22;4049;49.468;11.200;2023-05-07T08:34:17;17.40;99.90
8008;DHT22;4049;49.468;11.200;2023-05-07T08:36:44;17.50;99.90
8008;DHT22;4049;49.468;11.200;2023-05-07T08:39:12;17.50;99.90
8008;DHT22;4049;49.468;11.200;2023-05-07T08:41:40;17.60;99.90
8008;DHT22;4049;49.468;11.200;2023-05-07T08:44:12;17.70;99.90
8008;DHT22;4049;49.468;11.200;2023-05-07T08:46:39;17.80;99.90
8008;DHT22;4049;49.468;11.200;2023-05-07T08:49:07;17.90;99.90
8008;DHT22;4049;49.468;11.200;2023-05-07T08:51:36;18.00;99.90
8008;DHT22;4049;49.468;11.200;2023-05-07T08:54:03;18.10;99.90
8008;DHT22;4049;49.468;11.200;2023-05-07T08:56:30;18.10;99.90
8008;DHT22;4049;49.468;11.200;2023-05-07T08:58:57;18.20;99.90
8008;DHT22;4049;49.468;11.200;2023-05-07T09:01:24;18.20;99.90
8008;DHT22;4049;49.468;11.200;2023-05-07T09:03:52;18.30;99.90
8008;DHT22;4049;49.468;11.200;2023-05-07T09:06:19;18.40;99.90
8008;DHT22;4049;49.468;11.200;2023-05-07T09:08:51;18.60;99.90
8008;DHT22;4049;49.468;11.200;2023-05-07T09:11:20;18.60;99.90
8008;DHT22;4049;49.468;11.200;2023-05-07T09:13:47;18.80;99.90
8008;DHT22;4049;49.468;11.200;2023-05-07T09:16:15;18.90;99.90
8008;DHT22;4049;49.468;11.200;2023-05-07T09:18:43;18.90;99.90
8008;DHT22;4049;49.468;11.200;2023-05-07T09:21:10;19.00;99.90
8008;DHT22;4049;49.468;11.200;2023-05-07T09:23:38;19.00;99.90
8008;DHT22;4049;49.468;11.200;2023-05-07T09:26:07;19.10;99.90
8008;DHT22;4049;49.468;11.200;2023-05-07T09:28:38;19.20;99.90
8008;DHT22;4049;49.468;11.200;2023-05-07T09:31:06;19.30;99.90
8008;DHT22;4049;49.468;11.200;2023-05-07T09:33:33;19.40;99.90
8008;DHT22;4049;49.468;11.200;2023-05-07T09:36:03;19.60;99.90
8008;DHT22;4049;49.468;11.200;2023-05-07T09:38:31;19.70;99.90
8008;DHT22;4049;49.468;11.200;2023-05-07T09:41:02;19.80;99.90
8008;DHT22;4049;49.468;11.200;2023-05-07T09:43:33;19.90;99.90
8008;DHT22;4049;49.468;11.200;2023-05-07T09:46:03;20.10;99.90
8008;DHT22;4049;49.468;11.200;2023-05-07T09:48:30;20.20;99.90
8008;DHT22;4049;49.468;11.200;2023-05-07T09:51:00;20.30;99.90
8008;DHT22;4049;49.468;11.200;2023-05-07T09:53:29;20.40;99.90
8008;DHT22;4049;49.468;11.200;2023-05-07T09:55:57;20.50;99.90
8008;DHT22;4049;49.468;11.200;2023-05-07T09:58:26;20.60;99.90
8008;DHT22;4049;49.468;11.200;2023-05-07T10:00:54;20.60;99.90
8008;DHT22;4049;49.468;11.200;2023-05-07T10:03:22;20.70;99.90
8008;DHT22;4049;49.468;11.200;2023-05-07T10:05:51;20.70;99.90
8008;DHT22;4049;49.468;11.200;2023-05-07T10:08:18;20.70;99.90
8008;DHT22;4049;49.468;11.200;2023-05-07T10:10:47;20.80;99.90
8008;DHT22;4049;49.468;11.200;2023-05-07T10:13:14;20.90;99.90
8008;DHT22;4049;49.468;11.200;2023-05-07T10:15:41;20.90;99.90
8008;DHT22;4049;49.468;11.200;2023-05-07T10:18:10;21.10;99.90
8008;DHT22;4049;49.468;11.200;2023-05-07T10:20:39;21.10;99.90
8008;DHT22;4049;49.468;11.200;2023-05-07T10:23:07;21.30;99.90
8008;DHT22;4049;49.468;11.200;2023-05-07T10:25:36;21.50;99.90
8008;DHT22;4049;49.468;11.200;2023-05-07T10:28:06;21.60;99.90
8008;DHT22;4049;49.468;11.200;2023-05-07T10:30:40;21.70;99.90
8008;DHT22;4049;49.468;11.200;2023-05-07T10:33:13;21.70;99.90
8008;DHT22;4049;49.468;11.200;2023-05-07T10:35:43;21.80;99.90
8008;DHT22;4049;49.468;11.200;2023-05-07T10:38:11;21.90;99.90
8008;DHT22;4049;49.468;11.200;2023-05-07T10:40:38;21.90;99.90
8008;DHT22;4049;49.468;11.200;2023-05-07T10:43:06;22.00;99.90
8008;DHT22;4049;49.468;11.200;2023-05-07T10:45:33;22.00;99.90
8008;DHT22;4049;49.468;11.200;2023-05-07T10:48:07;22.10;99.90
8008;DHT22;4049;49.468;11.200;2023-05-07T10:50:37;22.00;99.90
8008;DHT22;4049;49.468;11.200;2023-05-07T10:53:23;22.00;99.90
8008;DHT22;4049;49.468;11.200;2023-05-07T10:56:24;21.90;99.90
8008;DHT22;4049;49.468;11.200;2023-05-07T10:58:52;22.10;99.90
8008;DHT22;4049;49.468;11.200;2023-05-07T11:01:49;22.20;99.90
8008;DHT22;4049;49.468;11.200;2023-05-07T11:04:16;22.40;99.90
8008;DHT22;4049;49.468;11.200;2023-05-07T11:07:27;22.60;99.90
8008;DHT22;4049;49.468;11.200;2023-05-07T11:09:56;22.70;99.90
8008;DHT22;4049;49.468;11.200;2023-05-07T11:12:53;22.90;99.90
8008;DHT22;4049;49.468;11.200;2023-05-07T11:15:41;23.10;99.90
8008;DHT22;4049;49.468;11.200;2023-05-07T11:18:09;23.20;99.90
8008;DHT22;4049;49.468;11.200;2023-05-07T11:20:50;23.40;99.90
8008;DHT22;4049;49.468;11.200;2023-05-07T11:26:19;24.00;99.90
8008;DHT22;4049;49.468;11.200;2023-05-07T11:28:46;24.30;99.90
8008;DHT22;4049;49.468;11.200;2023-05-07T11:31:13;24.50;99.90
8008;DHT22;4049;49.468;11.200;2023-05-07T11:33:43;24.60;98.50
8008;DHT22;4049;49.468;11.200;2023-05-07T11:36:11;24.70;98.00
8008;DHT22;4049;49.468;11.200;2023-05-07T11:38:38;24.70;94.20
8008;DHT22;4049;49.468;11.200;2023-05-07T11:41:05;24.70;91.80
8008;DHT22;4049;49.468;11.200;2023-05-07T11:43:34;24.70;92.50
8008;DHT22;4049;49.468;11.200;2023-05-07T11:46:09;24.70;93.90
8008;DHT22;4049;49.468;11.200;2023-05-07T11:48:36;24.70;91.80
8008;DHT22;4049;49.468;11.200;2023-05-07T11:51:04;24.70;90.00
8008;DHT22;4049;49.468;11.200;2023-05-07T11:53:36;24.90;87.00
8008;DHT22;4049;49.468;11.200;2023-05-07T11:56:06;25.00;84.40
8008;DHT22;4049;49.468;11.200;2023-05-07T11:58:34;25.30;87.50
8008;DHT22;4049;49.468;11.200;2023-05-07T12:01:01;25.40;77.60
8008;DHT22;4049;49.468;11.200;2023-05-07T12:03:28;25.50;80.70
8008;DHT22;4049;49.468;11.200;2023-05-07T12:05:55;25.70;83.10
8008;DHT22;4049;49.468;11.200;2023-05-07T12:08:22;25.80;79.90
8008;DHT22;4049;49.468;11.200;2023-05-07T12:10:49;25.80;75.70
8008;DHT22;4049;49.468;11.200;2023-05-07T12:13:17;25.80;77.40
8008;DHT22;4049;49.468;11.200;2023-05-07T12:15:45;25.70;74.10
8008;DHT22;4049;49.468;11.200;2023-05-07T12:18:13;25.60;76.20
8008;DHT22;4049;49.468;11.200;2023-05-07T12:20:40;25.40;77.40
8008;DHT22;4049;49.468;11.200;2023-05-07T12:23:07;25.20;74.20
8008;DHT22;4049;49.468;11.200;2023-05-07T12:25:35;25.00;75.20
8008;DHT22;4049;49.468;11.200;2023-05-07T12:28:02;24.80;77.10
8008;DHT22;4049;49.468;11.200;2023-05-07T12:30:30;24.60;74.60
8008;DHT22;4049;49.468;11.200;2023-05-07T12:32:58;24.40;76.90
8008;DHT22;4049;49.468;11.200;2023-05-07T12:35:28;24.40;75.40
8008;DHT22;4049;49.468;11.200;2023-05-07T12:37:55;24.40;77.60
8008;DHT22;4049;49.468;11.200;2023-05-07T12:40:24;24.60;78.10
8008;DHT22;4049;49.468;11.200;2023-05-07T12:42:53;24.70;78.90
8008;DHT22;4049;49.468;11.200;2023-05-07T12:45:21;24.90;78.90
8008;DHT22;4049;49.468;11.200;2023-05-07T12:47:48;24.90;76.80
8008;DHT22;4049;49.468;11.200;2023-05-07T12:50:16;24.70;76.00
8008;DHT22;4049;49.468;11.200;2023-05-07T12:52:44;24.60;73.10
8008;DHT22;4049;49.468;11.200;2023-05-07T12:55:13;24.50;73.90
8008;DHT22;4049;49.468;11.200;2023-05-07T12:57:42;24.40;75.40
8008;DHT22;4049;49.468;11.200;2023-05-07T13:00:10;24.40;77.70
8008;DHT22;4049;49.468;11.200;2023-05-07T13:02:38;24.80;77.30
8008;DHT22;4049;49.468;11.200;2023-05-07T13:05:05;25.20;74.70
8008;DHT22;4049;49.468;11.200;2023-05-07T13:07:34;25.50;73.30
8008;DHT22;4049;49.468;11.200;2023-05-07T13:10:02;25.80;70.00
8008;DHT22;4049;49.468;11.200;2023-05-07T13:12:29;26.10;68.00
8008;DHT22;4049;49.468;11.200;2023-05-07T13:14:56;26.40;71.20
8008;DHT22;4049;49.468;11.200;2023-05-07T13:17:23;26.40;65.40
8008;DHT22;4049;49.468;11.200;2023-05-07T13:19:50;26.30;65.30
8008;DHT22;4049;49.468;11.200;2023-05-07T13:22:16;26.30;67.30
8008;DHT22;4049;49.468;11.200;2023-05-07T13:24:47;26.00;61.80
8008;DHT22;4049;49.468;11.200;2023-05-07T13:27:14;25.70;64.50
8008;DHT22;4049;49.468;11.200;2023-05-07T13:29:41;25.40;64.30
8008;DHT22;4049;49.468;11.200;2023-05-07T13:32:07;25.30;64.00
8008;DHT22;4049;49.468;11.200;2023-05-07T13:34:34;25.10;64.20
8008;DHT22;4049;49.468;11.200;2023-05-07T13:37:02;25.00;65.50
8008;DHT22;4049;49.468;11.200;2023-05-07T13:39:29;25.10;67.60
8008;DHT22;4049;49.468;11.200;2023-05-07T13:41:57;24.90;66.50
8008;DHT22;4049;49.468;11.200;2023-05-07T13:44:24;24.80;67.80
8008;DHT22;4049;49.468;11.200;2023-05-07T13:46:51;24.60;65.60
8008;DHT22;4049;49.468;11.200;2023-05-07T13:49:17;24.50;66.60
8008;DHT22;4049;49.468;11.200;2023-05-07T13:51:44;24.30;67.60
8008;DHT22;4049;49.468;11.200;2023-05-07T13:54:11;24.30;65.20
8008;DHT22;4049;49.468;11.200;2023-05-07T13:56:38;24.10;66.40
8008;DHT22;4049;49.468;11.200;2023-05-07T13:59:06;24.10;64.90
8008;DHT22;4049;49.468;11.200;2023-05-07T14:01:33;24.00;67.30
8008;DHT22;4049;49.468;11.200;2023-05-07T14:04:00;24.00;66.70
8008;DHT22;4049;49.468;11.200;2023-05-07T14:06:27;24.00;68.50
8008;DHT22;4049;49.468;11.200;2023-05-07T14:08:54;24.30;68.60
8008;DHT22;4049;49.468;11.200;2023-05-07T14:11:23;24.60;68.20
8008;DHT22;4049;49.468;11.200;2023-05-07T14:13:50;24.90;70.40
8008;DHT22;4049;49.468;11.200;2023-05-07T14:16:18;25.10;69.90
8008;DHT22;4049;49.468;11.200;2023-05-07T14:18:45;25.30;68.10
8008;DHT22;4049;49.468;11.200;2023-05-07T14:21:12;25.50;69.50
8008;DHT22;4049;49.468;11.200;2023-05-07T14:23:39;25.60;66.20
8008;DHT22;4049;49.468;11.200;2023-05-07T14:26:06;25.50;65.20
8008;DHT22;4049;49.468;11.200;2023-05-07T14:28:33;25.40;65.10
8008;DHT22;4049;49.468;11.200;2023-05-07T14:30:59;25.30;64.80
8008;DHT22;4049;49.468;11.200;2023-05-07T14:33:28;25.10;63.50
8008;DHT22;4049;49.468;11.200;2023-05-07T14:35:54;24.80;63.60
8008;DHT22;4049;49.468;11.200;2023-05-07T14:38:21;24.70;66.20
8008;DHT22;4049;49.468;11.200;2023-05-07T14:40:48;24.50;65.30
8008;DHT22;4049;49.468;11.200;2023-05-07T14:43:15;24.50;65.90
8008;DHT22;4049;49.468;11.200;2023-05-07T14:45:42;24.50;67.10
8008;DHT22;4049;49.468;11.200;2023-05-07T14:48:08;24.60;67.60
8008;DHT22;4049;49.468;11.200;2023-05-07T14:50:41;24.50;66.10
8008;DHT22;4049;49.468;11.200;2023-05-07T14:53:08;24.40;63.90
8008;DHT22;4049;49.468;11.200;2023-05-07T14:55:35;24.40;66.20
8008;DHT22;4049;49.468;11.200;2023-05-07T14:58:02;24.40;64.70
8008;DHT22;4049;49.468;11.200;2023-05-07T15:00:29;24.40;65.70
8008;DHT22;4049;49.468;11.200;2023-05-07T15:03:04;24.30;65.00
8008;DHT22;4049;49.468;11.200;2023-05-07T15:05:31;24.20;66.90
8008;DHT22;4049;49.468;11.200;2023-05-07T15:07:59;24.20;67.50
8008;DHT22;4049;49.468;11.200;2023-05-07T15:10:26;24.20;66.80
8008;DHT22;4049;49.468;11.200;2023-05-07T15:12:53;24.20;66.40
8008;DHT22;4049;49.468;11.200;2023-05-07T15:15:20;24.20;65.20
8008;DHT22;4049;49.468;11.200;2023-05-07T15:17:47;24.20;66.20
8008;DHT22;4049;49.468;11.200;2023-05-07T15:20:14;24.10;64.70
8008;DHT22;4049;49.468;11.200;2023-05-07T15:22:41;24.00;66.10
8008;DHT22;4049;49.468;11.200;2023-05-07T15:25:09;23.90;66.40
8008;DHT22;4049;49.468;11.200;2023-05-07T15:27:36;23.80;66.40
8008;DHT22;4049;49.468;11.200;2023-05-07T15:30:04;23.80;66.40
8008;DHT22;4049;49.468;11.200;2023-05-07T15:32:31;23.70;65.50
8008;DHT22;4049;49.468;11.200;2023-05-07T15:34:58;23.60;65.50
8008;DHT22;4049;49.468;11.200;2023-05-07T15:37:25;23.60;65.80
8008;DHT22;4049;49.468;11.200;2023-05-07T15:39:52;23.60;65.80
8008;DHT22;4049;49.468;11.200;2023-05-07T15:42:20;23.60;66.00
8008;DHT22;4049;49.468;11.200;2023-05-07T15:44:47;23.60;65.20
8008;DHT22;4049;49.468;11.200;2023-05-07T15:47:14;23.50;66.30
8008;DHT22;4049;49.468;11.200;2023-05-07T15:49:41;23.40;64.60
8008;DHT22;4049;49.468;11.200;2023-05-07T15:52:08;23.30;65.30
8008;DHT22;4049;49.468;11.200;2023-05-07T15:54:36;23.10;66.10